Hattiesburg Laurel Regional Airport
KPIB : now visible

Airfield :











YOU CAN JOIN US ON...

 
LOGIN :

Register | Disclaimer

   EN    FR    IT 

 









Legend :    VFR   Marginal VFR   IFR   Intensive IFR   Very Intensive IFR
Visi :
Ceiling :
>= 8 km
>= 3000ft
5 to 8 km
1000 to 3000 ft
1500m to 5 km
500 to 1000 ft
800 to 1500m
200 to 500 ft
< 800m
< 200 ft
Symbols :   Thunderstorms  Fog  Heavy snow  Heavy precipitations  Wind > 20 kt






- Airport Elevation : 298 ft
- IATA code : PIB


KPIB - Hattiesburg Laurel Regional

CURRENT METAR :
  • 220356Z AUTO 05005KT 10SM CLR M01/M06 A3046 RMK AO2 SLP318 T10061056 FZRANO

EXPIRED METARs :
  • 220256Z AUTO 02005KT 10SM CLR 00/M06 A3047 RMK AO2 SLP320 T00001056 53002 FZRANO
  • 220156Z AUTO 02005KT 10SM CLR 01/M06 A3045 RMK AO2 SLP315 T00061056 FZRANO

TAF KPIB
Valid from the 22 at 00:00 until the 23 at 00:00 UTC


212320Z 2200/2224 09004KT P6SM BKN250



MET'MAP, your aeronautical weather chart ! - Copyright ORBIFLY December 2007 - Disclaimer

ORBIFLY MET'MAP TEAM :

Programming & Development : Alexandra Zaïnal
Concept & original design : Baudouin d'Aumeries
Assistance for programming : Marc-Olivier Méhu
Technical & hardware support : Manuel Goepfert

Contact : metmap@orbifly.com




SOURCES & CREDITS :

   NOAA       Earth
Advisory